sensor_id;sensor_type;location;lat;lon;timestamp;temperature;humidity
21246;DHT22;10781;50.928;4.440;2023-09-12T00:01:40;23.90;99.90
21246;DHT22;10781;50.928;4.440;2023-09-12T00:04:06;23.70;99.90
21246;DHT22;10781;50.928;4.440;2023-09-12T00:06:32;23.60;99.90
21246;DHT22;10781;50.928;4.440;2023-09-12T00:08:57;23.90;99.90
21246;DHT22;10781;50.928;4.440;2023-09-12T00:11:23;23.80;99.90
21246;DHT22;10781;50.928;4.440;2023-09-12T00:13:51;23.60;99.90
21246;DHT22;10781;50.928;4.440;2023-09-12T00:16:17;23.60;99.90
21246;DHT22;10781;50.928;4.440;2023-09-12T00:18:42;23.70;99.90
21246;DHT22;10781;50.928;4.440;2023-09-12T00:21:08;23.70;99.90
21246;DHT22;10781;50.928;4.440;2023-09-12T00:23:34;23.60;99.90
21246;DHT22;10781;50.928;4.440;2023-09-12T00:25:59;23.20;99.90
21246;DHT22;10781;50.928;4.440;2023-09-12T00:28:25;23.30;99.90
21246;DHT22;10781;50.928;4.440;2023-09-12T00:30:51;23.50;99.90
21246;DHT22;10781;50.928;4.440;2023-09-12T00:33:17;23.60;99.90
21246;DHT22;10781;50.928;4.440;2023-09-12T00:35:44;23.80;99.90
21246;DHT22;10781;50.928;4.440;2023-09-12T00:38:09;23.90;99.90
21246;DHT22;10781;50.928;4.440;2023-09-12T00:40:35;24.00;99.90
21246;DHT22;10781;50.928;4.440;2023-09-12T00:43:01;24.00;99.90
21246;DHT22;10781;50.928;4.440;2023-09-12T00:45:26;24.10;99.90
21246;DHT22;10781;50.928;4.440;2023-09-12T00:47:52;24.10;99.90
21246;DHT22;10781;50.928;4.440;2023-09-12T00:50:20;24.00;99.90
21246;DHT22;10781;50.928;4.440;2023-09-12T00:52:47;24.00;99.90
21246;DHT22;10781;50.928;4.440;2023-09-12T00:55:14;24.10;99.90
21246;DHT22;10781;50.928;4.440;2023-09-12T00:57:40;24.10;99.90
21246;DHT22;10781;50.928;4.440;2023-09-12T01:00:06;24.10;99.90
21246;DHT22;10781;50.928;4.440;2023-09-12T01:02:39;24.10;99.90
21246;DHT22;10781;50.928;4.440;2023-09-12T01:05:06;24.10;99.90
21246;DHT22;10781;50.928;4.440;2023-09-12T01:07:33;24.00;99.90
21246;DHT22;10781;50.928;4.440;2023-09-12T01:09:59;24.00;99.90
21246;DHT22;10781;50.928;4.440;2023-09-12T01:12:25;23.90;99.90
21246;DHT22;10781;50.928;4.440;2023-09-12T01:14:50;23.90;99.90
21246;DHT22;10781;50.928;4.440;2023-09-12T01:17:16;23.90;99.90
21246;DHT22;10781;50.928;4.440;2023-09-12T01:19:42;24.00;99.90
21246;DHT22;10781;50.928;4.440;2023-09-12T01:27:47;23.20;99.90
21246;DHT22;10781;50.928;4.440;2023-09-12T01:30:18;23.30;99.90
21246;DHT22;10781;50.928;4.440;2023-09-12T01:32:46;23.30;99.90
21246;DHT22;10781;50.928;4.440;2023-09-12T01:35:12;23.40;99.90
21246;DHT22;10781;50.928;4.440;2023-09-12T01:37:38;23.30;99.90
21246;DHT22;10781;50.928;4.440;2023-09-12T01:40:05;23.30;99.90
21246;DHT22;10781;50.928;4.440;2023-09-12T01:42:43;23.30;99.90
21246;DHT22;10781;50.928;4.440;2023-09-12T01:45:12;23.40;99.90
21246;DHT22;10781;50.928;4.440;2023-09-12T01:47:39;23.50;99.90
21246;DHT22;10781;50.928;4.440;2023-09-12T01:50:08;23.40;99.90
21246;DHT22;10781;50.928;4.440;2023-09-12T01:52:35;23.30;99.90
21246;DHT22;10781;50.928;4.440;2023-09-12T01:55:02;23.20;99.90
21246;DHT22;10781;50.928;4.440;2023-09-12T01:57:28;23.10;99.90
21246;DHT22;10781;50.928;4.440;2023-09-12T01:59:54;23.00;99.90
21246;DHT22;10781;50.928;4.440;2023-09-12T02:02:19;22.90;99.90
21246;DHT22;10781;50.928;4.440;2023-09-12T02:07:27;22.90;99.90
21246;DHT22;10781;50.928;4.440;2023-09-12T02:09:55;23.00;99.90
21246;DHT22;10781;50.928;4.440;2023-09-12T02:12:20;23.10;99.90
21246;DHT22;10781;50.928;4.440;2023-09-12T02:14:46;23.20;99.90
21246;DHT22;10781;50.928;4.440;2023-09-12T02:17:11;23.10;99.90
21246;DHT22;10781;50.928;4.440;2023-09-12T02:19:37;23.10;99.90
21246;DHT22;10781;50.928;4.440;2023-09-12T02:22:03;23.00;99.90
21246;DHT22;10781;50.928;4.440;2023-09-12T02:24:28;23.00;99.90
21246;DHT22;10781;50.928;4.440;2023-09-12T02:26:54;23.00;99.90
21246;DHT22;10781;50.928;4.440;2023-09-12T02:29:20;23.00;99.90
21246;DHT22;10781;50.928;4.440;2023-09-12T02:31:46;23.00;99.90
21246;DHT22;10781;50.928;4.440;2023-09-12T02:34:11;23.10;99.90
21246;DHT22;10781;50.928;4.440;2023-09-12T02:36:37;23.10;99.90
21246;DHT22;10781;50.928;4.440;2023-09-12T02:39:03;23.10;99.90
21246;DHT22;10781;50.928;4.440;2023-09-12T02:41:29;23.10;99.90
21246;DHT22;10781;50.928;4.440;2023-09-12T02:43:54;23.00;99.90
21246;DHT22;10781;50.928;4.440;2023-09-12T02:46:20;22.90;99.90
21246;DHT22;10781;50.928;4.440;2023-09-12T02:48:45;23.00;99.90
21246;DHT22;10781;50.928;4.440;2023-09-12T02:51:12;23.00;99.90
21246;DHT22;10781;50.928;4.440;2023-09-12T02:53:37;22.90;99.90
21246;DHT22;10781;50.928;4.440;2023-09-12T02:56:03;22.90;99.90
21246;DHT22;10781;50.928;4.440;2023-09-12T02:58:29;23.00;99.90
21246;DHT22;10781;50.928;4.440;2023-09-12T03:00:54;23.00;99.90
21246;DHT22;10781;50.928;4.440;2023-09-12T03:03:20;22.90;99.90
21246;DHT22;10781;50.928;4.440;2023-09-12T03:05:46;22.80;99.90
21246;DHT22;10781;50.928;4.440;2023-09-12T03:08:12;22.80;99.90
21246;DHT22;10781;50.928;4.440;2023-09-12T03:10:37;22.90;99.90
21246;DHT22;10781;50.928;4.440;2023-09-12T03:13:03;22.90;99.90
21246;DHT22;10781;50.928;4.440;2023-09-12T03:15:28;22.70;99.90
21246;DHT22;10781;50.928;4.440;2023-09-12T03:17:54;22.60;99.90
21246;DHT22;10781;50.928;4.440;2023-09-12T03:20:20;22.90;99.90
21246;DHT22;10781;50.928;4.440;2023-09-12T03:22:46;22.90;99.90
21246;DHT22;10781;50.928;4.440;2023-09-12T03:25:11;23.00;99.90
21246;DHT22;10781;50.928;4.440;2023-09-12T03:27:37;23.10;99.90
21246;DHT22;10781;50.928;4.440;2023-09-12T03:30:04;23.20;99.90
21246;DHT22;10781;50.928;4.440;2023-09-12T03:32:30;23.20;99.90
21246;DHT22;10781;50.928;4.440;2023-09-12T03:34:56;23.20;99.90
21246;DHT22;10781;50.928;4.440;2023-09-12T03:37:21;23.00;99.90
21246;DHT22;10781;50.928;4.440;2023-09-12T03:39:47;23.00;99.90
21246;DHT22;10781;50.928;4.440;2023-09-12T03:42:13;23.10;99.90
21246;DHT22;10781;50.928;4.440;2023-09-12T03:44:38;23.10;99.90
21246;DHT22;10781;50.928;4.440;2023-09-12T03:47:04;23.00;99.90
21246;DHT22;10781;50.928;4.440;2023-09-12T03:49:30;23.10;99.90
21246;DHT22;10781;50.928;4.440;2023-09-12T03:51:55;23.30;99.90
21246;DHT22;10781;50.928;4.440;2023-09-12T03:54:22;23.10;99.90
21246;DHT22;10781;50.928;4.440;2023-09-12T03:56:48;22.80;99.90
21246;DHT22;10781;50.928;4.440;2023-09-12T03:59:13;22.90;99.90
21246;DHT22;10781;50.928;4.440;2023-09-12T04:01:39;23.10;99.90
21246;DHT22;10781;50.928;4.440;2023-09-12T04:04:05;23.20;99.90
21246;DHT22;10781;50.928;4.440;2023-09-12T04:06:31;23.20;99.90
21246;DHT22;10781;50.928;4.440;2023-09-12T04:08:57;22.90;99.90
21246;DHT22;10781;50.928;4.440;2023-09-12T04:11:22;23.00;99.90
21246;DHT22;10781;50.928;4.440;2023-09-12T04:13:48;23.00;99.90
21246;DHT22;10781;50.928;4.440;2023-09-12T04:16:14;23.20;99.90
21246;DHT22;10781;50.928;4.440;2023-09-12T04:18:39;23.30;99.90
21246;DHT22;10781;50.928;4.440;2023-09-12T04:21:05;23.30;99.90
21246;DHT22;10781;50.928;4.440;2023-09-12T04:23:31;23.30;99.90
21246;DHT22;10781;50.928;4.440;2023-09-12T04:25:56;23.30;99.90
21246;DHT22;10781;50.928;4.440;2023-09-12T04:28:22;23.10;99.90
21246;DHT22;10781;50.928;4.440;2023-09-12T04:30:48;22.80;99.90
21246;DHT22;10781;50.928;4.440;2023-09-12T04:33:13;22.70;99.90
21246;DHT22;10781;50.928;4.440;2023-09-12T04:35:39;22.70;99.90
21246;DHT22;10781;50.928;4.440;2023-09-12T04:38:05;22.90;99.90
21246;DHT22;10781;50.928;4.440;2023-09-12T04:40:30;23.20;99.90
21246;DHT22;10781;50.928;4.440;2023-09-12T04:42:56;23.30;99.90
21246;DHT22;10781;50.928;4.440;2023-09-12T04:45:22;23.20;99.90
21246;DHT22;10781;50.928;4.440;2023-09-12T04:47:48;22.80;99.90
21246;DHT22;10781;50.928;4.440;2023-09-12T04:50:13;22.90;99.90
21246;DHT22;10781;50.928;4.440;2023-09-12T04:52:39;22.80;99.90
21246;DHT22;10781;50.928;4.440;2023-09-12T04:55:05;22.60;99.90
21246;DHT22;10781;50.928;4.440;2023-09-12T04:57:30;22.70;99.90
21246;DHT22;10781;50.928;4.440;2023-09-12T04:59:57;22.30;99.90
21246;DHT22;10781;50.928;4.440;2023-09-12T05:02:24;22.20;99.90
21246;DHT22;10781;50.928;4.440;2023-09-12T05:04:50;22.20;99.90
21246;DHT22;10781;50.928;4.440;2023-09-12T05:07:16;22.30;99.90
21246;DHT22;10781;50.928;4.440;2023-09-12T05:09:41;22.40;99.90
21246;DHT22;10781;50.928;4.440;2023-09-12T05:12:08;22.60;99.90
21246;DHT22;10781;50.928;4.440;2023-09-12T05:14:34;22.80;99.90
21246;DHT22;10781;50.928;4.440;2023-09-12T05:16:59;22.90;99.90
21246;DHT22;10781;50.928;4.440;2023-09-12T05:19:27;22.90;99.90
21246;DHT22;10781;50.928;4.440;2023-09-12T05:21:53;22.90;99.90
21246;DHT22;10781;50.928;4.440;2023-09-12T05:24:18;22.80;99.90
21246;DHT22;10781;50.928;4.440;2023-09-12T05:26:44;22.70;99.90
21246;DHT22;10781;50.928;4.440;2023-09-12T05:29:10;22.70;99.90
21246;DHT22;10781;50.928;4.440;2023-09-12T05:31:35;22.70;99.90
21246;DHT22;10781;50.928;4.440;2023-09-12T05:34:01;22.70;99.90
21246;DHT22;10781;50.928;4.440;2023-09-12T05:36:27;22.80;99.90
21246;DHT22;10781;50.928;4.440;2023-09-12T05:38:52;22.60;99.90
21246;DHT22;10781;50.928;4.440;2023-09-12T05:41:18;22.40;99.90
21246;DHT22;10781;50.928;4.440;2023-09-12T05:43:44;22.50;99.90
21246;DHT22;10781;50.928;4.440;2023-09-12T05:46:09;22.70;99.90
21246;DHT22;10781;50.928;4.440;2023-09-12T05:48:35;22.70;99.90
21246;DHT22;10781;50.928;4.440;2023-09-12T05:51:01;22.70;99.90
21246;DHT22;10781;50.928;4.440;2023-09-12T05:53:26;22.80;99.90
21246;DHT22;10781;50.928;4.440;2023-09-12T05:55:52;22.70;99.90
21246;DHT22;10781;50.928;4.440;2023-09-12T05:58:18;22.30;99.90
21246;DHT22;10781;50.928;4.440;2023-09-12T06:00:43;22.10;99.90
21246;DHT22;10781;50.928;4.440;2023-09-12T06:03:09;22.10;99.90
21246;DHT22;10781;50.928;4.440;2023-09-12T06:05:34;22.20;99.90
21246;DHT22;10781;50.928;4.440;2023-09-12T06:08:00;22.40;99.90
21246;DHT22;10781;50.928;4.440;2023-09-12T06:10:26;22.60;99.90
21246;DHT22;10781;50.928;4.440;2023-09-12T06:12:51;22.70;99.90
21246;DHT22;10781;50.928;4.440;2023-09-12T06:15:17;22.80;99.90
21246;DHT22;10781;50.928;4.440;2023-09-12T06:17:43;23.10;99.90
21246;DHT22;10781;50.928;4.440;2023-09-12T06:20:09;23.30;99.90
21246;DHT22;10781;50.928;4.440;2023-09-12T06:22:35;23.60;99.90
21246;DHT22;10781;50.928;4.440;2023-09-12T06:25:01;23.90;99.90
21246;DHT22;10781;50.928;4.440;2023-09-12T06:27:27;24.20;99.90
21246;DHT22;10781;50.928;4.440;2023-09-12T06:29:52;24.50;99.90
21246;DHT22;10781;50.928;4.440;2023-09-12T06:32:18;24.80;99.90
21246;DHT22;10781;50.928;4.440;2023-09-12T06:34:44;24.90;99.90
21246;DHT22;10781;50.928;4.440;2023-09-12T06:37:13;25.00;99.90
21246;DHT22;10781;50.928;4.440;2023-09-12T06:39:39;25.20;99.90
21246;DHT22;10781;50.928;4.440;2023-09-12T06:42:05;24.90;99.90
21246;DHT22;10781;50.928;4.440;2023-09-12T06:44:31;24.80;99.90
21246;DHT22;10781;50.928;4.440;2023-09-12T06:46:56;24.90;99.90
21246;DHT22;10781;50.928;4.440;2023-09-12T06:49:22;25.00;99.90
21246;DHT22;10781;50.928;4.440;2023-09-12T06:51:47;25.20;99.90
21246;DHT22;10781;50.928;4.440;2023-09-12T06:54:13;25.10;99.90
21246;DHT22;10781;50.928;4.440;2023-09-12T06:56:40;25.20;99.90
21246;DHT22;10781;50.928;4.440;2023-09-12T06:59:08;24.90;99.90
21246;DHT22;10781;50.928;4.440;2023-09-12T07:01:34;24.80;99.90
21246;DHT22;10781;50.928;4.440;2023-09-12T07:04:00;24.70;99.90
21246;DHT22;10781;50.928;4.440;2023-09-12T07:06:25;24.80;99.90
21246;DHT22;10781;50.928;4.440;2023-09-12T07:08:51;24.90;99.90
21246;DHT22;10781;50.928;4.440;2023-09-12T07:11:17;25.20;99.90
21246;DHT22;10781;50.928;4.440;2023-09-12T07:13:44;25.30;99.90
21246;DHT22;10781;50.928;4.440;2023-09-12T07:16:10;25.20;99.90
21246;DHT22;10781;50.928;4.440;2023-09-12T07:18:36;25.10;99.90
21246;DHT22;10781;50.928;4.440;2023-09-12T07:21:03;25.10;99.90
21246;DHT22;10781;50.928;4.440;2023-09-12T07:23:29;25.00;99.90
21246;DHT22;10781;50.928;4.440;2023-09-12T07:25:56;24.80;99.90
21246;DHT22;10781;50.928;4.440;2023-09-12T07:28:25;24.60;99.90
21246;DHT22;10781;50.928;4.440;2023-09-12T07:30:51;24.50;99.90
21246;DHT22;10781;50.928;4.440;2023-09-12T07:33:17;24.40;99.90
21246;DHT22;10781;50.928;4.440;2023-09-12T07:35:42;24.30;99.90
21246;DHT22;10781;50.928;4.440;2023-09-12T07:38:08;24.40;99.90
21246;DHT22;10781;50.928;4.440;2023-09-12T07:40:34;24.30;99.90
21246;DHT22;10781;50.928;4.440;2023-09-12T07:42:59;24.50;99.90
21246;DHT22;10781;50.928;4.440;2023-09-12T07:45:25;24.80;99.90
21246;DHT22;10781;50.928;4.440;2023-09-12T07:47:51;25.00;99.90
21246;DHT22;10781;50.928;4.440;2023-09-12T07:50:16;25.10;99.90
21246;DHT22;10781;50.928;4.440;2023-09-12T07:52:42;25.20;99.90
21246;DHT22;10781;50.928;4.440;2023-09-12T07:55:08;25.30;99.90
21246;DHT22;10781;50.928;4.440;2023-09-12T07:57:34;25.30;99.90
21246;DHT22;10781;50.928;4.440;2023-09-12T08:00:00;25.50;99.90
21246;DHT22;10781;50.928;4.440;2023-09-12T08:02:26;25.70;99.90
21246;DHT22;10781;50.928;4.440;2023-09-12T08:04:52;25.80;99.90
21246;DHT22;10781;50.928;4.440;2023-09-12T08:07:19;25.90;99.90
21246;DHT22;10781;50.928;4.440;2023-09-12T08:09:55;26.00;99.90
21246;DHT22;10781;50.928;4.440;2023-09-12T08:12:26;26.30;99.90
21246;DHT22;10781;50.928;4.440;2023-09-12T08:14:53;26.60;99.90
21246;DHT22;10781;50.928;4.440;2023-09-12T08:17:19;26.80;99.90
21246;DHT22;10781;50.928;4.440;2023-09-12T08:19:45;26.90;99.90
21246;DHT22;10781;50.928;4.440;2023-09-12T08:22:12;27.10;99.90
21246;DHT22;10781;50.928;4.440;2023-09-12T08:24:38;28.60;99.90
21246;DHT22;10781;50.928;4.440;2023-09-12T08:27:05;30.80;99.90
21246;DHT22;10781;50.928;4.440;2023-09-12T08:29:31;31.90;99.90
21246;DHT22;10781;50.928;4.440;2023-09-12T08:31:58;33.40;99.90
21246;DHT22;10781;50.928;4.440;2023-09-12T08:34:24;33.90;99.90
21246;DHT22;10781;50.928;4.440;2023-09-12T08:36:50;34.40;99.90
21246;DHT22;10781;50.928;4.440;2023-09-12T08:39:25;34.80;99.90
21246;DHT22;10781;50.928;4.440;2023-09-12T08:41:52;35.40;99.90
21246;DHT22;10781;50.928;4.440;2023-09-12T08:44:19;35.80;99.10
21246;DHT22;10781;50.928;4.440;2023-09-12T08:46:45;36.30;97.30
21246;DHT22;10781;50.928;4.440;2023-09-12T08:49:11;37.00;95.00
21246;DHT22;10781;50.928;4.440;2023-09-12T08:51:40;37.40;94.00
21246;DHT22;10781;50.928;4.440;2023-09-12T08:54:07;37.90;92.50
21246;DHT22;10781;50.928;4.440;2023-09-12T08:56:35;38.90;90.80
21246;DHT22;10781;50.928;4.440;2023-09-12T08:59:02;39.30;87.50
21246;DHT22;10781;50.928;4.440;2023-09-12T09:01:33;39.30;85.20
21246;DHT22;10781;50.928;4.440;2023-09-12T09:04:02;39.20;83.80
21246;DHT22;10781;50.928;4.440;2023-09-12T09:06:30;39.40;81.30
21246;DHT22;10781;50.928;4.440;2023-09-12T09:08:56;39.70;80.70
21246;DHT22;10781;50.928;4.440;2023-09-12T09:11:22;39.90;79.10
21246;DHT22;10781;50.928;4.440;2023-09-12T09:13:48;39.70;78.60
21246;DHT22;10781;50.928;4.440;2023-09-12T09:16:16;39.50;78.40
21246;DHT22;10781;50.928;4.440;2023-09-12T09:19:01;37.60;79.00
21246;DHT22;10781;50.928;4.440;2023-09-12T09:21:31;37.60;80.00
21246;DHT22;10781;50.928;4.440;2023-09-12T09:24:03;37.50;82.50
21246;DHT22;10781;50.928;4.440;2023-09-12T09:26:48;38.80;80.20
21246;DHT22;10781;50.928;4.440;2023-09-12T09:29:19;40.30;76.00
21246;DHT22;10781;50.928;4.440;2023-09-12T09:31:47;40.00;74.80
21246;DHT22;10781;50.928;4.440;2023-09-12T09:34:18;40.20;74.50
21246;DHT22;10781;50.928;4.440;2023-09-12T09:36:51;40.20;73.50
21246;DHT22;10781;50.928;4.440;2023-09-12T09:39:18;40.50;72.20
21246;DHT22;10781;50.928;4.440;2023-09-12T09:41:51;41.70;71.30
21246;DHT22;10781;50.928;4.440;2023-09-12T09:44:18;41.60;68.40
21246;DHT22;10781;50.928;4.440;2023-09-12T09:46:45;41.60;68.40
21246;DHT22;10781;50.928;4.440;2023-09-12T09:49:15;41.70;67.80
21246;DHT22;10781;50.928;4.440;2023-09-12T09:51:41;41.50;68.20
21246;DHT22;10781;50.928;4.440;2023-09-12T09:54:08;40.90;68.80
21246;DHT22;10781;50.928;4.440;2023-09-12T09:56:49;40.90;68.50
21246;DHT22;10781;50.928;4.440;2023-09-12T09:59:21;40.10;69.00
21246;DHT22;10781;50.928;4.440;2023-09-12T10:01:49;39.20;72.40
21246;DHT22;10781;50.928;4.440;2023-09-12T10:04:16;38.70;72.10
21246;DHT22;10781;50.928;4.440;2023-09-12T10:06:44;37.80;74.80
21246;DHT22;10781;50.928;4.440;2023-09-12T10:09:11;37.90;75.40
21246;DHT22;10781;50.928;4.440;2023-09-12T10:11:39;38.40;73.50
21246;DHT22;10781;50.928;4.440;2023-09-12T10:14:06;37.30;74.40
21246;DHT22;10781;50.928;4.440;2023-09-12T10:16:34;36.20;77.00
21246;DHT22;10781;50.928;4.440;2023-09-12T10:19:16;35.00;79.50
21246;DHT22;10781;50.928;4.440;2023-09-12T10:24:30;33.10;86.50
21246;DHT22;10781;50.928;4.440;2023-09-12T10:26:57;32.90;88.40
21246;DHT22;10781;50.928;4.440;2023-09-12T10:29:23;32.20;90.80
21246;DHT22;10781;50.928;4.440;2023-09-12T10:31:49;33.30;91.00
21246;DHT22;10781;50.928;4.440;2023-09-12T10:34:15;33.70;89.50
21246;DHT22;10781;50.928;4.440;2023-09-12T10:36:42;35.80;87.10
21246;DHT22;10781;50.928;4.440;2023-09-12T10:39:10;37.20;83.60
21246;DHT22;10781;50.928;4.440;2023-09-12T10:41:40;36.50;82.10
21246;DHT22;10781;50.928;4.440;2023-09-12T10:44:11;35.50;82.70
21246;DHT22;10781;50.928;4.440;2023-09-12T10:46:41;35.20;86.60
21246;DHT22;10781;50.928;4.440;2023-09-12T10:49:11;36.10;85.60
21246;DHT22;10781;50.928;4.440;2023-09-12T10:51:45;37.50;82.70
21246;DHT22;10781;50.928;4.440;2023-09-12T10:54:25;39.60;78.20
21246;DHT22;10781;50.928;4.440;2023-09-12T10:57:23;40.60;74.50
21246;DHT22;10781;50.928;4.440;2023-09-12T11:02:30;41.30;69.90
21246;DHT22;10781;50.928;4.440;2023-09-12T11:04:57;41.50;68.30
21246;DHT22;10781;50.928;4.440;2023-09-12T11:07:43;40.30;68.10
21246;DHT22;10781;50.928;4.440;2023-09-12T11:10:18;40.20;69.80
21246;DHT22;10781;50.928;4.440;2023-09-12T11:12:46;39.00;70.00
21246;DHT22;10781;50.928;4.440;2023-09-12T11:15:13;38.70;72.60
21246;DHT22;10781;50.928;4.440;2023-09-12T11:17:41;39.60;71.30
21246;DHT22;10781;50.928;4.440;2023-09-12T11:20:08;40.40;68.40
21246;DHT22;10781;50.928;4.440;2023-09-12T11:22:38;40.90;68.60
21246;DHT22;10781;50.928;4.440;2023-09-12T11:25:24;39.90;66.50
21246;DHT22;10781;50.928;4.440;2023-09-12T11:30:24;37.50;72.40
21246;DHT22;10781;50.928;4.440;2023-09-12T11:33:04;36.80;74.20
21246;DHT22;10781;50.928;4.440;2023-09-12T11:35:36;36.10;74.00
21246;DHT22;10781;50.928;4.440;2023-09-12T11:38:03;35.50;75.90
21246;DHT22;10781;50.928;4.440;2023-09-12T11:43:04;34.50;79.90
21246;DHT22;10781;50.928;4.440;2023-09-12T11:45:31;34.70;80.00
21246;DHT22;10781;50.928;4.440;2023-09-12T11:47:58;35.40;79.10
21246;DHT22;10781;50.928;4.440;2023-09-12T11:50:34;35.90;77.20
21246;DHT22;10781;50.928;4.440;2023-09-12T11:53:05;37.00;75.70
21246;DHT22;10781;50.928;4.440;2023-09-12T11:55:42;37.30;73.10
21246;DHT22;10781;50.928;4.440;2023-09-12T11:58:08;37.10;72.40
21246;DHT22;10781;50.928;4.440;2023-09-12T12:00:34;37.70;72.50
21246;DHT22;10781;50.928;4.440;2023-09-12T12:03:00;38.90;71.10
21246;DHT22;10781;50.928;4.440;2023-09-12T12:05:26;37.70;72.10
21246;DHT22;10781;50.928;4.440;2023-09-12T12:07:51;37.40;74.20
21246;DHT22;10781;50.928;4.440;2023-09-12T12:10:17;38.40;72.10
21246;DHT22;10781;50.928;4.440;2023-09-12T12:12:46;39.60;71.00
21246;DHT22;10781;50.928;4.440;2023-09-12T12:15:13;40.40;67.40
21246;DHT22;10781;50.928;4.440;2023-09-12T12:17:40;40.40;65.80
21246;DHT22;10781;50.928;4.440;2023-09-12T12:20:08;40.20;65.00
21246;DHT22;10781;50.928;4.440;2023-09-12T12:22:38;39.80;68.60
21246;DHT22;10781;50.928;4.440;2023-09-12T12:25:11;40.10;67.40
21246;DHT22;10781;50.928;4.440;2023-09-12T12:27:38;40.20;66.60
21246;DHT22;10781;50.928;4.440;2023-09-12T12:30:06;41.00;64.80
21246;DHT22;10781;50.928;4.440;2023-09-12T12:32:32;40.20;65.00
21246;DHT22;10781;50.928;4.440;2023-09-12T12:34:58;40.40;64.40
21246;DHT22;10781;50.928;4.440;2023-09-12T12:37:30;40.50;65.10
21246;DHT22;10781;50.928;4.440;2023-09-12T12:39:56;40.30;64.30
21246;DHT22;10781;50.928;4.440;2023-09-12T12:42:22;40.50;64.60
21246;DHT22;10781;50.928;4.440;2023-09-12T12:44:56;40.70;64.00
21246;DHT22;10781;50.928;4.440;2023-09-12T12:47:21;41.10;63.40
21246;DHT22;10781;50.928;4.440;2023-09-12T12:49:53;41.10;62.00
21246;DHT22;10781;50.928;4.440;2023-09-12T12:52:23;39.10;63.00
21246;DHT22;10781;50.928;4.440;2023-09-12T12:54:49;38.00;65.70
21246;DHT22;10781;50.928;4.440;2023-09-12T12:57:19;37.00;67.90
21246;DHT22;10781;50.928;4.440;2023-09-12T12:59:47;36.20;69.00
21246;DHT22;10781;50.928;4.440;2023-09-12T13:02:16;35.40;71.70
21246;DHT22;10781;50.928;4.440;2023-09-12T13:04:42;34.90;72.80
21246;DHT22;10781;50.928;4.440;2023-09-12T13:07:08;34.30;74.80
21246;DHT22;10781;50.928;4.440;2023-09-12T13:09:33;34.00;75.90
21246;DHT22;10781;50.928;4.440;2023-09-12T13:11:59;33.70;76.90
21246;DHT22;10781;50.928;4.440;2023-09-12T13:14:25;33.50;76.40
21246;DHT22;10781;50.928;4.440;2023-09-12T13:16:59;33.00;77.50
21246;DHT22;10781;50.928;4.440;2023-09-12T13:19:26;32.70;78.00
21246;DHT22;10781;50.928;4.440;2023-09-12T13:21:52;32.50;79.60
21246;DHT22;10781;50.928;4.440;2023-09-12T13:24:17;32.10;80.40
21246;DHT22;10781;50.928;4.440;2023-09-12T13:26:43;31.90;82.60
21246;DHT22;10781;50.928;4.440;2023-09-12T13:29:09;31.70;82.10
21246;DHT22;10781;50.928;4.440;2023-09-12T13:31:35;31.70;82.90
21246;DHT22;10781;50.928;4.440;2023-09-12T13:34:01;31.70;84.00
21246;DHT22;10781;50.928;4.440;2023-09-12T13:36:27;31.50;85.00
21246;DHT22;10781;50.928;4.440;2023-09-12T13:38:53;31.40;85.50
21246;DHT22;10781;50.928;4.440;2023-09-12T13:41:18;31.00;86.00
21246;DHT22;10781;50.928;4.440;2023-09-12T13:43:44;30.90;86.80
21246;DHT22;10781;50.928;4.440;2023-09-12T13:46:13;30.80;86.20
21246;DHT22;10781;50.928;4.440;2023-09-12T13:48:39;30.50;87.40
21246;DHT22;10781;50.928;4.440;2023-09-12T13:51:04;30.30;88.10
21246;DHT22;10781;50.928;4.440;2023-09-12T13:53:31;30.20;90.00
21246;DHT22;10781;50.928;4.440;2023-09-12T13:55:56;30.10;90.10
21246;DHT22;10781;50.928;4.440;2023-09-12T13:58:24;30.10;90.10
21246;DHT22;10781;50.928;4.440;2023-09-12T14:00:49;30.00;91.00
21246;DHT22;10781;50.928;4.440;2023-09-12T14:03:16;30.00;91.50
21246;DHT22;10781;50.928;4.440;2023-09-12T14:05:42;29.70;91.90
21246;DHT22;10781;50.928;4.440;2023-09-12T14:08:07;29.50;92.30
21246;DHT22;10781;50.928;4.440;2023-09-12T14:10:33;29.40;93.20
21246;DHT22;10781;50.928;4.440;2023-09-12T14:12:58;29.60;92.90
21246;DHT22;10781;50.928;4.440;2023-09-12T14:15:24;29.60;93.00
21246;DHT22;10781;50.928;4.440;2023-09-12T14:17:51;29.50;92.80
21246;DHT22;10781;50.928;4.440;2023-09-12T14:20:17;29.40;93.40
21246;DHT22;10781;50.928;4.440;2023-09-12T14:22:43;29.20;93.80
21246;DHT22;10781;50.928;4.440;2023-09-12T14:25:09;29.40;94.70
21246;DHT22;10781;50.928;4.440;2023-09-12T14:27:43;29.10;95.30
21246;DHT22;10781;50.928;4.440;2023-09-12T14:30:10;28.90;95.00
21246;DHT22;10781;50.928;4.440;2023-09-12T14:32:36;28.70;96.20
21246;DHT22;10781;50.928;4.440;2023-09-12T14:35:03;28.70;96.60
21246;DHT22;10781;50.928;4.440;2023-09-12T14:37:29;28.90;97.00
21246;DHT22;10781;50.928;4.440;2023-09-12T14:39:54;28.70;97.20
21246;DHT22;10781;50.928;4.440;2023-09-12T14:42:23;28.50;98.10
21246;DHT22;10781;50.928;4.440;2023-09-12T14:44:49;28.60;98.50
21246;DHT22;10781;50.928;4.440;2023-09-12T14:47:14;28.60;98.80
21246;DHT22;10781;50.928;4.440;2023-09-12T14:49:40;28.70;99.20
21246;DHT22;10781;50.928;4.440;2023-09-12T14:52:06;28.50;98.70
21246;DHT22;10781;50.928;4.440;2023-09-12T14:54:32;28.40;98.90
21246;DHT22;10781;50.928;4.440;2023-09-12T14:56:57;28.50;99.90
21246;DHT22;10781;50.928;4.440;2023-09-12T14:59:23;28.40;99.90
21246;DHT22;10781;50.928;4.440;2023-09-12T15:01:49;28.30;99.90
21246;DHT22;10781;50.928;4.440;2023-09-12T15:04:14;28.20;99.90
21246;DHT22;10781;50.928;4.440;2023-09-12T15:06:40;28.10;99.90
21246;DHT22;10781;50.928;4.440;2023-09-12T15:09:06;28.20;99.90
21246;DHT22;10781;50.928;4.440;2023-09-12T15:11:31;28.20;99.90
21246;DHT22;10781;50.928;4.440;2023-09-12T15:13:58;28.10;99.90
21246;DHT22;10781;50.928;4.440;2023-09-12T15:16:25;28.00;99.90
21246;DHT22;10781;50.928;4.440;2023-09-12T15:18:51;27.90;99.90
21246;DHT22;10781;50.928;4.440;2023-09-12T15:21:17;28.00;99.90
21246;DHT22;10781;50.928;4.440;2023-09-12T15:23:43;27.80;99.90
21246;DHT22;10781;50.928;4.440;2023-09-12T15:26:08;27.80;99.90
21246;DHT22;10781;50.928;4.440;2023-09-12T15:28:34;27.70;99.90
21246;DHT22;10781;50.928;4.440;2023-09-12T15:31:00;27.50;99.90
21246;DHT22;10781;50.928;4.440;2023-09-12T15:33:28;27.50;99.90
21246;DHT22;10781;50.928;4.440;2023-09-12T15:35:54;27.40;99.90
21246;DHT22;10781;50.928;4.440;2023-09-12T15:38:20;27.30;99.90
21246;DHT22;10781;50.928;4.440;2023-09-12T15:40:45;27.40;99.90
21246;DHT22;10781;50.928;4.440;2023-09-12T15:43:11;27.50;99.90
21246;DHT22;10781;50.928;4.440;2023-09-12T15:45:37;27.50;99.90
21246;DHT22;10781;50.928;4.440;2023-09-12T15:48:02;27.10;99.90